Time;durP1;ratioP1;P1;durP2;ratioP2;P2;SDS_P1;SDS_P2;PMS_P1;PMS_P2;Temp;Humidity;BMP_temperature;BMP_pressure;BME280_temperature;BME280_humidity;BME280_pressure;Samples;Min_cycle;Max_cycle;Signal;HPM_P1;HPM_P2
2021/11/27 00:00:16;;;;;;;293.53;284.87;;;4.50;93.10;;;;;;4939214;29;20476;-84
2021/11/27 00:02:45;;;;;;;271.97;263.90;;;4.50;92.70;;;;;;4940907;29;20459;-84
2021/11/27 00:05:14;;;;;;;272.67;264.63;;;4.50;92.60;;;;;;4940632;29;20460;-84
2021/11/27 00:07:49;;;;;;;300.50;291.30;;;4.50;93.10;;;;;;4940828;29;20480;-83
2021/11/27 00:10:18;;;;;;;309.03;299.63;;;4.50;93.40;;;;;;4948024;29;20482;-84
2021/11/27 00:12:47;;;;;;;272.93;264.87;;;4.50;93.60;;;;;;4960186;29;20543;-84
2021/11/27 00:15:15;;;;;;;292.53;283.70;;;4.60;93.50;;;;;;4959878;29;20510;-83
2021/11/27 00:17:43;;;;;;;271.07;262.80;;;4.50;93.60;;;;;;4959879;29;20511;-83
2021/11/27 00:20:16;;;;;;;245.17;237.87;;;4.60;93.60;;;;;;4959966;29;20523;-83
2021/11/27 00:22:44;;;;;;;242.87;235.30;;;4.60;93.10;;;;;;4960169;29;20539;-84
2021/11/27 00:25:14;;;;;;;254.33;246.33;;;4.60;93.10;;;;;;4959714;28;20884;-81
2021/11/27 00:27:42;;;;;;;147.97;142.97;;;4.70;93.00;;;;;;4959632;29;20542;-83
2021/11/27 00:30:15;;;;;;;121.30;117.03;;;4.70;91.30;;;;;;4959863;29;20464;-83
2021/11/27 00:32:45;;;;;;;127.90;123.70;;;4.70;90.70;;;;;;4959680;29;20546;-84
2021/11/27 00:35:13;;;;;;;123.93;119.93;;;4.70;91.00;;;;;;4959162;29;20765;-84
2021/11/27 00:37:41;;;;;;;132.40;128.10;;;4.70;91.00;;;;;;4959131;28;20554;-83
2021/11/27 00:40:10;;;;;;;138.83;134.37;;;4.70;91.40;;;;;;4959110;29;20448;-83
2021/11/27 00:42:37;;;;;;;170.07;164.70;;;4.70;91.30;;;;;;4958896;29;20471;-83
2021/11/27 00:45:10;;;;;;;180.70;175.03;;;4.70;91.90;;;;;;4948844;29;20464;-83
2021/11/27 00:47:38;;;;;;;214.03;207.57;;;4.70;92.00;;;;;;4939269;29;20544;-83
2021/11/27 00:50:08;;;;;;;224.23;217.43;;;4.70;92.40;;;;;;4939134;29;20496;-83
2021/11/27 00:52:37;;;;;;;246.73;239.40;;;4.60;92.70;;;;;;4939575;29;20820;-83
2021/11/27 00:55:05;;;;;;;233.27;226.23;;;4.60;92.70;;;;;;4939544;29;20460;-83
2021/11/27 00:57:35;;;;;;;217.40;210.97;;;4.60;92.60;;;;;;4939179;29;20469;-83
2021/11/27 01:00:03;;;;;;;255.90;248.40;;;4.60;92.30;;;;;;4939482;29;20854;-83
2021/11/27 01:02:30;;;;;;;274.77;266.60;;;4.70;92.90;;;;;;4939579;29;20457;-83
2021/11/27 01:04:57;;;;;;;288.87;280.20;;;4.70;93.20;;;;;;4939186;29;20448;-83
2021/11/27 01:07:24;;;;;;;307.73;298.70;;;4.60;93.70;;;;;;4939328;29;20924;-83
2021/11/27 01:09:56;;;;;;;306.83;297.77;;;4.60;93.70;;;;;;4939066;29;20491;-83
2021/11/27 01:12:23;;;;;;;320.63;311.00;;;4.60;94.00;;;;;;4939089;29;20457;-83
2021/11/27 01:14:50;;;;;;;281.87;273.47;;;4.60;93.90;;;;;;4939434;29;20556;-83
2021/11/27 01:17:17;;;;;;;231.27;224.47;;;4.60;94.30;;;;;;4939031;29;20568;-83
2021/11/27 01:19:48;;;;;;;213.70;207.40;;;4.50;92.80;;;;;;4939708;29;21008;-83
2021/11/27 01:22:18;;;;;;;255.80;248.33;;;4.60;93.00;;;;;;4940059;29;20483;-83
2021/11/27 01:24:48;;;;;;;264.87;257.10;;;4.60;93.50;;;;;;4939157;29;20504;-83
2021/11/27 01:27:17;;;;;;;249.63;241.93;;;4.50;93.50;;;;;;4939005;29;20523;-83
2021/11/27 01:29:45;;;;;;;270.53;262.53;;;4.70;93.30;;;;;;4939382;29;20449;-83
2021/11/27 01:32:14;;;;;;;265.60;257.70;;;4.50;93.60;;;;;;4939350;29;20535;-83
2021/11/27 01:34:44;;;;;;;263.30;255.53;;;4.60;93.70;;;;;;4939158;29;20539;-82
2021/11/27 01:37:11;;;;;;;309.87;300.53;;;4.50;93.30;;;;;;4938834;29;20572;-83
2021/11/27 01:39:40;;;;;;;335.10;324.90;;;4.50;93.90;;;;;;4938155;29;20457;-83
2021/11/27 01:42:07;;;;;;;259.90;252.23;;;4.60;93.90;;;;;;4938671;29;20911;-83
2021/11/27 01:44:36;;;;;;;207.33;200.97;;;4.50;93.70;;;;;;4933032;29;20454;-83
2021/11/27 01:47:04;;;;;;;266.77;258.67;;;4.50;93.20;;;;;;4918842;29;20481;-83
2021/11/27 01:49:31;;;;;;;322.70;312.80;;;4.50;94.60;;;;;;4919131;29;20517;-82
2021/11/27 01:51:58;;;;;;;396.00;382.63;;;4.50;95.10;;;;;;4918987;29;20464;-83
2021/11/27 01:54:26;;;;;;;453.57;437.40;;;4.40;95.90;;;;;;4918868;29;20482;-84
2021/11/27 01:56:56;;;;;;;478.70;461.37;;;4.40;96.70;;;;;;4918262;29;20537;-83
2021/11/27 01:59:24;;;;;;;533.00;512.00;;;4.40;96.60;;;;;;4918848;29;20474;-83
2021/11/27 02:01:53;;;;;;;608.77;583.13;;;4.40;97.20;;;;;;4918874;29;20474;-83
2021/11/27 02:04:20;;;;;;;588.00;563.53;;;4.40;98.00;;;;;;4918988;29;21101;-83
2021/11/27 02:06:47;;;;;;;583.73;559.43;;;4.40;98.00;;;;;;4918095;29;20470;-83
2021/11/27 02:09:17;;;;;;;581.93;557.63;;;4.40;98.10;;;;;;4919290;29;20466;-83
2021/11/27 02:11:45;;;;;;;522.23;501.63;;;4.50;97.80;;;;;;4919155;29;20450;-83
2021/11/27 02:14:13;;;;;;;508.33;488.47;;;4.50;96.70;;;;;;4919555;29;20541;-84
2021/11/27 02:16:41;;;;;;;518.03;497.13;;;4.60;96.90;;;;;;4918587;29;20560;-83
2021/11/27 02:19:10;;;;;;;501.87;482.30;;;4.50;97.00;;;;;;4918905;29;20469;-84
2021/11/27 02:21:40;;;;;;;446.37;429.87;;;4.40;96.60;;;;;;4919053;29;20532;-83
2021/11/27 02:24:07;;;;;;;429.27;413.80;;;4.50;95.90;;;;;;4919431;29;20457;-84
2021/11/27 02:26:36;;;;;;;463.27;446.13;;;4.30;95.90;;;;;;4919027;29;20979;-84
2021/11/27 02:29:07;;;;;;;536.83;515.77;;;4.30;96.60;;;;;;4919395;29;21305;-83
2021/11/27 02:31:35;;;;;;;611.27;585.23;;;4.20;97.40;;;;;;4919929;29;20485;-84
2021/11/27 02:34:04;;;;;;;630.00;602.40;;;4.20;98.30;;;;;;4919087;29;20961;-83
2021/11/27 02:37:07;;;;;;;645.83;616.87;;;4.20;98.70;;;;;;4918790;29;21072;-83
2021/11/27 02:39:39;;;;;;;660.53;630.33;;;4.10;99.60;;;;;;4918371;29;20464;-84
2021/11/27 02:42:08;;;;;;;636.87;608.50;;;4.20;99.00;;;;;;4919298;29;20516;-83
2021/11/27 02:44:38;;;;;;;596.77;571.73;;;4.20;99.00;;;;;;4925581;29;20960;-84
2021/11/27 02:47:06;;;;;;;617.30;590.73;;;4.20;98.30;;;;;;4937868;29;21048;-83
2021/11/27 02:49:33;;;;;;;514.87;495.17;;;4.10;98.70;;;;;;4938794;29;20524;-84
2021/11/27 02:52:03;;;;;;;361.13;349.33;;;4.00;97.60;;;;;;4937898;29;20456;-84
2021/11/27 02:54:32;;;;;;;319.03;308.87;;;3.90;95.70;;;;;;4938715;29;20473;-84
2021/11/27 02:56:59;;;;;;;323.53;313.23;;;3.80;95.50;;;;;;4938159;29;20484;-84
2021/11/27 02:59:28;;;;;;;357.40;345.70;;;3.60;95.60;;;;;;4939370;29;20464;-84
2021/11/27 03:01:57;;;;;;;339.10;328.37;;;3.50;95.80;;;;;;4938086;29;20556;-83
2021/11/27 03:04:26;;;;;;;317.97;308.17;;;3.50;95.50;;;;;;4938829;29;20455;-83
2021/11/27 03:06:54;;;;;;;336.43;325.57;;;3.50;95.50;;;;;;4938497;29;21059;-84
2021/11/27 03:09:22;;;;;;;354.47;343.00;;;3.40;95.50;;;;;;4945766;29;20456;-84
2021/11/27 03:11:53;;;;;;;381.00;368.37;;;3.50;95.70;;;;;;4941291;29;20815;-84
2021/11/27 03:14:24;;;;;;;420.47;405.97;;;3.40;95.60;;;;;;4938320;29;20467;-84
2021/11/27 03:16:52;;;;;;;429.87;415.13;;;3.30;96.50;;;;;;4938475;29;20487;-84
2021/11/27 03:19:19;;;;;;;463.50;446.83;;;3.30;96.30;;;;;;4937883;29;20518;-84
2021/11/27 03:21:46;;;;;;;457.67;441.37;;;3.30;96.70;;;;;;4937948;29;21117;-84
2021/11/27 03:24:15;;;;;;;436.47;421.27;;;3.20;96.80;;;;;;4938292;29;20540;-84
2021/11/27 03:26:45;;;;;;;468.43;451.43;;;3.30;96.40;;;;;;4937268;29;20480;-83
2021/11/27 03:29:17;;;;;;;482.97;465.30;;;3.20;96.80;;;;;;4937952;29;20473;-84
2021/11/27 03:31:46;;;;;;;478.67;461.47;;;3.20;96.90;;;;;;4938057;29;20464;-83
2021/11/27 03:34:13;;;;;;;543.27;522.13;;;3.20;96.90;;;;;;4939965;29;20480;-84
2021/11/27 03:36:40;;;;;;;534.03;513.43;;;3.20;97.60;;;;;;4941740;29;20473;-83
2021/11/27 03:39:07;;;;;;;516.80;496.77;;;3.20;97.50;;;;;;4942070;29;20463;-84
2021/11/27 03:41:35;;;;;;;546.03;524.43;;;3.40;97.30;;;;;;4942420;29;20476;-84
2021/11/27 03:44:04;;;;;;;570.93;547.80;;;3.20;97.50;;;;;;4941623;29;20488;-85
2021/11/27 03:46:35;;;;;;;571.97;548.37;;;3.30;97.60;;;;;;4922737;29;20468;-84
2021/11/27 03:49:02;;;;;;;577.23;553.47;;;3.30;97.90;;;;;;4922870;29;20461;-84
2021/11/27 03:51:31;;;;;;;653.30;624.20;;;3.30;98.10;;;;;;4927463;29;20476;-84
2021/11/27 03:53:58;;;;;;;668.30;637.90;;;3.40;99.20;;;;;;4928462;29;20449;-84
2021/11/27 03:56:27;;;;;;;660.50;630.53;;;3.40;99.40;;;;;;4922676;29;20494;-84
2021/11/27 03:58:57;;;;;;;656.53;626.77;;;3.40;99.30;;;;;;4941057;29;20456;-83
2021/11/27 04:01:25;;;;;;;658.17;628.13;;;3.40;99.40;;;;;;4941462;29;20480;-84
2021/11/27 04:03:56;;;;;;;568.60;545.23;;;3.40;98.70;;;;;;4941610;29;20463;-84
2021/11/27 04:06:23;;;;;;;626.23;598.93;;;3.40;98.10;;;;;;4941469;29;20510;-84
2021/11/27 04:08:54;;;;;;;609.03;583.03;;;3.50;98.90;;;;;;4938374;29;20457;-84
2021/11/27 04:11:20;;;;;;;613.47;587.27;;;3.40;98.70;;;;;;4922955;29;20457;-84
2021/11/27 04:13:48;;;;;;;573.40;549.70;;;3.50;98.40;;;;;;4922443;29;20949;-84
2021/11/27 04:16:17;;;;;;;581.60;557.47;;;3.50;98.10;;;;;;4922067;29;20465;-84
2021/11/27 04:18:47;;;;;;;571.50;548.07;;;3.50;98.20;;;;;;4922442;29;20884;-84
2021/11/27 04:21:17;;;;;;;567.80;544.53;;;3.50;98.00;;;;;;4922107;29;20466;-85
2021/11/27 04:23:45;;;;;;;509.43;489.60;;;3.50;97.80;;;;;;4921594;29;20461;-83
2021/11/27 04:26:12;;;;;;;564.53;541.60;;;3.60;97.10;;;;;;4921238;29;20462;-84
2021/11/27 04:28:41;;;;;;;553.57;530.57;;;3.60;97.60;;;;;;4920868;29;20489;-83
2021/11/27 04:31:09;;;;;;;580.03;555.37;;;3.60;97.70;;;;;;4921804;29;20887;-83
2021/11/27 04:33:36;;;;;;;555.80;532.80;;;3.70;98.20;;;;;;4920933;29;20467;-83
2021/11/27 04:36:04;;;;;;;597.27;571.60;;;3.50;97.80;;;;;;4920920;29;20468;-84
2021/11/27 04:38:33;;;;;;;555.30;532.50;;;3.50;98.10;;;;;;4921639;29;20564;-83
2021/11/27 04:41:02;;;;;;;517.60;496.97;;;3.40;97.70;;;;;;4921444;29;20462;-83
2021/11/27 04:43:29;;;;;;;470.60;452.63;;;3.40;97.50;;;;;;4921527;29;20482;-83
2021/11/27 04:48:42;;;;;;;479.77;461.73;;;3.00;96.90;;;;;;4939271;29;20464;-83
2021/11/27 04:51:12;;;;;;;504.03;484.23;;;2.80;97.30;;;;;;4940050;29;20504;-83
2021/11/27 04:53:40;;;;;;;568.97;545.27;;;2.70;97.50;;;;;;4939685;29;20899;-83
2021/11/27 04:56:07;;;;;;;619.00;592.43;;;2.50;98.40;;;;;;4940467;29;20465;-84
2021/11/27 04:58:35;;;;;;;733.20;695.73;;;2.50;99.20;;;;;;4939843;29;20476;-83
2021/11/27 05:01:11;;;;;;;780.13;734.90;;;2.40;99.90;;;;;;4939757;29;20536;-83
2021/11/27 05:03:43;;;;;;;792.03;742.77;;;2.50;99.90;;;;;;4939458;29;20476;-84
2021/11/27 05:06:23;;;;;;;792.63;744.60;;;2.50;99.90;;;;;;4919116;29;20474;-83
2021/11/27 05:08:52;;;;;;;781.47;735.70;;;2.50;99.90;;;;;;4919618;29;20813;-84
2021/11/27 05:11:24;;;;;;;778.80;734.30;;;2.50;99.90;;;;;;4926293;29;20456;-83
2021/11/27 05:14:00;;;;;;;798.13;749.93;;;2.30;99.90;;;;;;4938345;29;20480;-84
2021/11/27 05:16:34;;;;;;;805.90;753.60;;;2.20;99.90;;;;;;4937998;29;20828;-83
2021/11/27 05:19:54;;;;;;;814.77;764.17;;;2.00;99.90;;;;;;4938615;29;20465;-85
2021/11/27 05:23:41;;;;;;;825.73;774.27;;;1.80;99.90;;;;;;4861800;29;20896;-84
2021/11/27 05:26:40;;;;;;;821.87;768.07;;;1.60;99.90;;;;;;4917517;29;20471;-83
2021/11/27 05:35:59;;;;;;;830.20;769.30;;;1.20;99.90;;;;;;4911746;29;20461;-84
2021/11/27 05:39:04;;;;;;;827.73;767.03;;;1.30;99.90;;;;;;4978203;23;20486;-85
2021/11/27 05:42:24;;;;;;;819.03;757.70;;;1.10;99.90;;;;;;4887845;29;20455;-84
2021/11/27 05:45:37;;;;;;;827.97;762.57;;;1.20;99.90;;;;;;4887201;29;20467;-84
2021/11/27 05:48:14;;;;;;;821.60;754.40;;;1.10;99.90;;;;;;4884636;29;20485;-84
2021/11/27 05:51:43;;;;;;;;;;;;;;;;;;;;;
2021/11/27 05:55:05;;;;;;;830.27;758.63;;;1.30;99.90;;;;;;4830184;29;20470;-84
2021/11/27 05:58:11;;;;;;;826.50;755.10;;;1.40;99.90;;;;;;4885548;29;20487;-85
2021/11/27 06:01:06;;;;;;;826.37;751.53;;;1.30;99.90;;;;;;4885732;29;20555;-85
2021/11/27 06:03:47;;;;;;;830.00;756.30;;;1.30;99.90;;;;;;4878737;29;20468;-84
2021/11/27 06:06:37;;;;;;;838.07;763.50;;;1.20;99.90;;;;;;4884255;29;20470;-85
2021/11/27 06:09:07;;;;;;;838.50;763.63;;;1.20;99.90;;;;;;4880623;29;20491;-85
2021/11/27 06:12:06;;;;;;;824.50;749.37;;;1.30;99.90;;;;;;4884565;29;20455;-85
2021/11/27 06:14:35;;;;;;;821.87;745.77;;;1.40;99.90;;;;;;4884579;29;20471;-79
2021/11/27 06:17:10;;;;;;;847.50;767.60;;;1.50;99.90;;;;;;4906956;23;20489;-85
2021/11/27 06:19:40;;;;;;;848.40;768.93;;;1.30;99.90;;;;;;4942968;29;20487;-85
2021/11/27 06:22:09;;;;;;;828.27;753.60;;;1.30;99.90;;;;;;4943182;29;20480;-85
2021/11/27 06:24:36;;;;;;;831.53;757.03;;;1.40;99.90;;;;;;4944489;29;20453;-85
2021/11/27 06:27:12;;;;;;;832.67;758.63;;;1.60;99.90;;;;;;4941827;29;20495;-85
2021/11/27 06:29:44;;;;;;;844.07;767.57;;;1.70;99.90;;;;;;4942689;29;20488;-84
2021/11/27 06:32:12;;;;;;;838.43;763.10;;;1.70;99.90;;;;;;4942841;29;20492;-84
2021/11/27 06:34:40;;;;;;;831.10;755.83;;;1.60;99.90;;;;;;4941982;29;20467;-84
2021/11/27 06:37:08;;;;;;;835.53;759.83;;;1.70;99.90;;;;;;4949773;23;20496;-85
2021/11/27 06:39:37;;;;;;;831.10;755.93;;;1.60;99.90;;;;;;4944220;29;20484;-84
2021/11/27 06:42:06;;;;;;;830.83;754.87;;;1.60;99.90;;;;;;4943604;29;20957;-84
2021/11/27 06:44:33;;;;;;;828.10;751.70;;;1.40;99.90;;;;;;4942852;29;20464;-84
2021/11/27 06:47:05;;;;;;;825.60;750.23;;;1.40;99.90;;;;;;4942569;29;20476;-85
2021/11/27 06:49:44;;;;;;;828.63;752.33;;;1.40;99.90;;;;;;4943418;29;20457;-85
2021/11/27 06:52:37;;;;;;;819.07;743.67;;;1.60;99.90;;;;;;4940706;29;20453;-86
2021/11/27 06:55:09;;;;;;;837.13;762.67;;;1.60;99.90;;;;;;4942636;29;20828;-84
2021/11/27 06:57:38;;;;;;;844.63;768.87;;;1.60;99.90;;;;;;4942699;29;20476;-84
2021/11/27 07:00:06;;;;;;;841.77;767.37;;;1.70;99.90;;;;;;4942064;29;20488;-85
2021/11/27 07:02:34;;;;;;;852.00;775.40;;;1.90;99.90;;;;;;4941227;29;20480;-85
2021/11/27 07:05:05;;;;;;;839.10;764.03;;;2.10;99.90;;;;;;4929621;29;20450;-85
2021/11/27 07:07:32;;;;;;;818.57;747.87;;;2.30;99.90;;;;;;4919160;29;21033;-85
2021/11/27 07:10:09;;;;;;;822.17;751.63;;;2.40;99.90;;;;;;4921578;29;21037;-84
2021/11/27 07:12:51;;;;;;;827.20;758.17;;;2.40;99.90;;;;;;4920252;29;20801;-84
2021/11/27 07:15:30;;;;;;;817.80;750.63;;;2.50;99.90;;;;;;4919645;29;20521;-86
2021/11/27 07:18:38;;;;;;;843.17;777.37;;;2.50;99.90;;;;;;4921020;29;20481;-85
2021/11/27 07:21:15;;;;;;;827.20;763.70;;;2.50;99.90;;;;;;4916026;29;20493;-85
2021/11/27 07:23:43;;;;;;;837.43;774.93;;;2.50;99.90;;;;;;4921698;29;20528;-85
2021/11/27 07:26:12;;;;;;;824.43;762.63;;;2.30;99.90;;;;;;4922029;29;20848;-85
2021/11/27 07:28:41;;;;;;;832.03;770.93;;;2.30;99.90;;;;;;4919156;29;20478;-84
2021/11/27 07:31:21;;;;;;;831.83;769.03;;;2.00;99.90;;;;;;4919489;29;20942;-84
2021/11/27 07:33:53;;;;;;;829.37;764.97;;;1.90;99.90;;;;;;4919783;29;20453;-84
2021/11/27 07:36:37;;;;;;;827.70;762.80;;;1.90;99.90;;;;;;4922098;29;20457;-84
2021/11/27 07:39:09;;;;;;;818.20;752.30;;;1.70;99.90;;;;;;4920821;29;20541;-84
2021/11/27 07:41:41;;;;;;;795.47;729.20;;;1.70;99.90;;;;;;4921706;29;20938;-84
2021/11/27 07:44:19;;;;;;;798.30;732.70;;;1.80;99.90;;;;;;4921376;29;20993;-85
2021/11/27 07:46:56;;;;;;;798.63;733.47;;;1.80;99.90;;;;;;4936207;29;20480;-85
2021/11/27 07:49:35;;;;;;;802.63;737.47;;;1.80;99.90;;;;;;4940823;29;20464;-84
2021/11/27 07:52:12;;;;;;;807.67;741.20;;;1.80;99.90;;;;;;4942981;29;20457;-85
2021/11/27 07:54:46;;;;;;;800.80;736.00;;;1.80;99.90;;;;;;4942925;29;20839;-84
2021/11/27 07:57:26;;;;;;;;;;;;;;;;;;;;;
2021/11/27 07:59:53;;;;;;;796.93;732.67;;;1.90;99.90;;;;;;4920901;29;20560;-85
2021/11/27 08:02:20;;;;;;;791.20;727.90;;;1.90;99.90;;;;;;4920008;29;21098;-85
2021/11/27 08:04:48;;;;;;;792.37;730.40;;;2.10;99.90;;;;;;4920120;29;20457;-85
2021/11/27 08:07:15;;;;;;;805.90;743.07;;;2.10;99.90;;;;;;4919389;29;20477;-85
2021/11/27 08:09:42;;;;;;;803.33;741.77;;;2.10;99.90;;;;;;4919128;29;20504;-85
2021/11/27 08:12:09;;;;;;;816.53;755.13;;;2.00;99.90;;;;;;4919097;29;20552;-85
2021/11/27 08:14:36;;;;;;;821.97;757.80;;;1.90;99.90;;;;;;4919288;29;20482;-85
2021/11/27 08:17:04;;;;;;;813.97;749.40;;;1.90;99.90;;;;;;4918603;29;20482;-85
2021/11/27 08:19:31;;;;;;;815.13;750.13;;;1.90;99.90;;;;;;4918872;29;20526;-85
2021/11/27 08:22:00;;;;;;;811.03;744.37;;;2.00;99.90;;;;;;4921763;29;20598;-85
2021/11/27 08:24:27;;;;;;;796.53;731.53;;;2.00;99.90;;;;;;4921220;29;20485;-86
2021/11/27 08:26:54;;;;;;;799.97;735.70;;;2.00;99.90;;;;;;4919938;29;21036;-85
2021/11/27 08:29:21;;;;;;;811.27;746.70;;;1.90;99.90;;;;;;4920206;29;20453;-84
2021/11/27 08:31:49;;;;;;;808.00;741.27;;;2.10;99.90;;;;;;4920547;29;20458;-85
2021/11/27 08:34:18;;;;;;;794.73;730.40;;;2.00;99.90;;;;;;4921776;29;20544;-85
2021/11/27 08:36:49;;;;;;;786.80;722.90;;;2.10;99.90;;;;;;4922108;29;20482;-85
2021/11/27 08:39:18;;;;;;;791.80;727.70;;;2.10;99.90;;;;;;4923828;29;20457;-85
2021/11/27 08:41:47;;;;;;;788.97;724.63;;;2.10;99.90;;;;;;4921775;29;20508;-85
2021/11/27 08:44:18;;;;;;;792.80;727.90;;;2.10;99.90;;;;;;4916073;29;20499;-85
2021/11/27 08:46:47;;;;;;;778.13;714.10;;;2.00;99.90;;;;;;4916997;29;20549;-85
2021/11/27 08:49:17;;;;;;;784.20;719.50;;;2.10;99.90;;;;;;4921288;29;20521;-81
2021/11/27 08:51:44;;;;;;;787.90;722.40;;;2.10;99.90;;;;;;4918430;29;21006;-85
2021/11/27 08:54:12;;;;;;;783.90;719.83;;;2.10;99.90;;;;;;4919701;29;20453;-81
2021/11/27 08:56:40;;;;;;;778.50;714.70;;;2.20;99.90;;;;;;4919434;29;20482;-84
2021/11/27 08:59:07;;;;;;;784.97;721.50;;;2.30;99.90;;;;;;4920116;29;20478;-84
2021/11/27 09:01:34;;;;;;;780.33;718.23;;;2.40;99.90;;;;;;4920911;29;20829;-83
2021/11/27 09:04:00;;;;;;;778.30;718.40;;;2.40;99.90;;;;;;4920070;29;20487;-82
2021/11/27 09:06:28;;;;;;;776.87;719.30;;;2.50;99.90;;;;;;4920627;29;20461;-82
2021/11/27 09:08:55;;;;;;;777.07;721.37;;;2.60;99.90;;;;;;4913675;29;20466;-84
2021/11/27 09:11:33;;;;;;;768.20;714.40;;;2.70;99.90;;;;;;4899924;29;20463;-88
2021/11/27 09:14:02;;;;;;;752.27;704.77;;;2.80;99.90;;;;;;4902742;29;20458;-83
2021/11/27 09:16:29;;;;;;;710.07;669.57;;;2.90;99.90;;;;;;4903932;29;20454;-84
2021/11/27 09:18:56;;;;;;;711.33;671.13;;;3.00;99.90;;;;;;4901134;29;20466;-85
2021/11/27 09:21:23;;;;;;;632.17;600.45;;;2.90;99.90;;;;;;4899538;29;20472;-84
2021/11/27 09:23:50;;;;;;;650.33;617.93;;;3.00;99.90;;;;;;4900643;29;20222;-85
2021/11/27 09:26:26;;;;;;;664.33;631.27;;;3.00;99.90;;;;;;4899808;29;20494;-85
2021/11/27 09:28:53;;;;;;;653.37;621.53;;;3.10;99.90;;;;;;4901531;29;20454;-84
2021/11/27 09:31:22;;;;;;;639.87;609.27;;;3.10;99.90;;;;;;4900936;29;20545;-81
2021/11/27 09:33:49;;;;;;;547.40;523.20;;;3.10;99.90;;;;;;4901658;29;20451;-84
2021/11/27 09:36:18;;;;;;;424.07;407.87;;;3.10;99.90;;;;;;4902200;29;20462;-85
2021/11/27 09:38:44;;;;;;;372.57;358.47;;;3.10;99.90;;;;;;4902059;29;20804;-84
2021/11/27 09:41:18;;;;;;;329.77;318.23;;;3.00;99.90;;;;;;4902765;29;20487;-84
2021/11/27 09:43:47;;;;;;;312.13;300.80;;;3.20;99.90;;;;;;4903083;29;20518;-84
2021/11/27 09:46:18;;;;;;;330.73;318.63;;;3.20;99.90;;;;;;4901713;29;20459;-85
2021/11/27 09:48:51;;;;;;;282.43;271.63;;;3.30;99.90;;;;;;4903896;29;20462;-84
2021/11/27 09:51:24;;;;;;;217.00;208.57;;;3.50;99.90;;;;;;4902998;29;20477;-84
2021/11/27 09:53:51;;;;;;;132.70;127.03;;;3.60;99.80;;;;;;4902362;29;20546;-84
2021/11/27 09:56:20;;;;;;;105.13;99.07;;;3.70;98.50;;;;;;4901615;29;20553;-84
2021/11/27 09:58:48;;;;;;;76.33;71.93;;;3.70;97.30;;;;;;4901464;29;20478;-84
2021/11/27 10:01:17;;;;;;;45.43;42.47;;;3.80;96.60;;;;;;4902120;29;20866;-84
2021/11/27 10:03:58;;;;;;;42.97;39.77;;;3.80;95.70;;;;;;4900828;29;20530;-84
2021/11/27 10:06:25;;;;;;;49.90;46.73;;;3.70;95.60;;;;;;4900815;29;20948;-84
2021/11/27 10:08:52;;;;;;;44.23;41.30;;;3.70;95.60;;;;;;4903632;29;20459;-84
2021/11/27 10:11:19;;;;;;;52.23;49.23;;;3.70;95.60;;;;;;4902716;29;20466;-85
2021/11/27 10:13:49;;;;;;;47.00;43.37;;;3.60;95.20;;;;;;4902365;29;20466;-86
2021/11/27 10:16:18;;;;;;;53.00;49.90;;;3.80;94.60;;;;;;4901917;29;20553;-85
2021/11/27 10:19:04;;;;;;;47.20;44.30;;;3.90;94.90;;;;;;4902489;29;20814;-84
2021/11/27 10:21:32;;;;;;;42.40;39.60;;;3.90;94.10;;;;;;4899842;29;20458;-84
2021/11/27 10:24:00;;;;;;;33.00;30.50;;;4.00;93.80;;;;;;4901209;29;20478;-84
2021/11/27 10:26:32;;;;;;;42.87;39.70;;;4.00;93.20;;;;;;4900752;29;20465;-83
2021/11/27 10:29:19;;;;;;;29.30;26.47;;;4.00;93.70;;;;;;4900702;29;20455;-84
2021/11/27 10:31:49;;;;;;;24.10;21.90;;;3.90;93.20;;;;;;4902738;29;20833;-85
2021/11/27 10:34:19;;;;;;;24.80;22.30;;;3.90;93.20;;;;;;4900600;29;20483;-84
2021/11/27 10:36:48;;;;;;;23.53;21.27;;;3.80;93.00;;;;;;4902119;29;20475;-84
2021/11/27 10:39:18;;;;;;;24.50;22.33;;;3.90;92.90;;;;;;4901284;29;20458;-84
2021/11/27 10:42:00;;;;;;;31.83;29.43;;;3.90;93.00;;;;;;4899780;29;20450;-84
2021/11/27 10:44:30;;;;;;;25.20;23.00;;;4.10;92.40;;;;;;4899857;29;20847;-85
2021/11/27 10:47:10;;;;;;;23.90;21.40;;;4.10;92.40;;;;;;4903808;29;20464;-82
2021/11/27 10:49:39;;;;;;;21.30;15.80;;;4.20;92.20;;;;;;4908173;29;20198;-82
2021/11/27 10:52:08;;;;;;;19.13;15.40;;;4.30;91.30;;;;;;4903489;29;20462;-82
2021/11/27 10:54:55;;;;;;;16.50;14.03;;;4.30;91.20;;;;;;4903464;29;20451;-82
2021/11/27 10:57:36;;;;;;;33.87;20.67;;;4.40;90.40;;;;;;4901354;29;20497;-83
2021/11/27 11:00:08;;;;;;;46.30;23.73;;;4.40;90.40;;;;;;4905196;29;20542;-82
2021/11/27 11:02:36;;;;;;;21.53;10.50;;;4.60;88.60;;;;;;4906040;29;20558;-83
2021/11/27 11:05:14;;;;;;;32.97;15.60;;;4.80;86.30;;;;;;4906515;29;20566;-82
2021/11/27 11:07:42;;;;;;;26.80;15.20;;;4.80;86.60;;;;;;4920129;29;20492;-83
2021/11/27 11:10:19;;;;;;;25.07;15.53;;;4.90;84.00;;;;;;4918673;29;20517;-82
2021/11/27 11:12:50;;;;;;;24.73;11.10;;;5.00;81.50;;;;;;4918171;29;20458;-85
2021/11/27 11:18:18;;;;;;;17.70;9.00;;;5.00;79.20;;;;;;4912391;29;20896;-84
2021/11/27 11:20:49;;;;;;;18.53;12.10;;;5.10;79.00;;;;;;4919830;29;20556;-83
2021/11/27 11:23:19;;;;;;;14.23;8.63;;;5.30;78.60;;;;;;4919595;29;20454;-83
2021/11/27 11:26:01;;;;;;;13.87;8.23;;;5.50;78.20;;;;;;4919315;29;20462;-83
2021/11/27 11:28:32;;;;;;;16.43;8.03;;;6.10;76.40;;;;;;4920557;29;20483;-83
2021/11/27 11:31:04;;;;;;;16.23;6.90;;;6.70;69.10;;;;;;4921161;29;20531;-83
2021/11/27 11:33:34;;;;;;;18.50;7.33;;;7.10;64.50;;;;;;4921011;29;20564;-81
2021/11/27 11:36:21;;;;;;;22.00;7.67;;;7.10;61.60;;;;;;4918728;29;20548;-85
2021/11/27 11:38:53;;;;;;;13.33;5.50;;;7.40;60.70;;;;;;4918080;29;20435;-84
2021/11/27 11:41:24;;;;;;;12.90;4.87;;;8.10;58.50;;;;;;4917197;29;20459;-86
2021/11/27 11:43:53;;;;;;;14.30;5.07;;;8.40;55.20;;;;;;4901248;29;21036;-84
2021/11/27 11:46:21;;;;;;;12.43;4.67;;;8.50;53.10;;;;;;4900473;29;20470;-82
2021/11/27 11:48:51;;;;;;;11.90;4.50;;;9.10;56.90;;;;;;4920701;29;20454;-84
2021/11/27 11:51:31;;;;;;;11.73;4.03;;;9.00;48.00;;;;;;4916180;29;20473;-83
2021/11/27 11:54:00;;;;;;;12.30;4.37;;;8.90;46.10;;;;;;4899675;29;20457;-84
2021/11/27 11:56:32;;;;;;;12.97;4.70;;;8.80;45.60;;;;;;4903143;29;20466;-84
2021/11/27 11:59:18;;;;;;;13.70;4.10;;;8.80;46.30;;;;;;4903239;29;20462;-84
2021/11/27 12:01:45;;;;;;;16.13;4.80;;;8.50;46.70;;;;;;4904810;29;20851;-83
2021/11/27 12:04:22;;;;;;;14.67;4.43;;;8.30;47.60;;;;;;4904002;29;20486;-84
2021/11/27 12:06:50;;;;;;;13.57;4.13;;;8.20;46.30;;;;;;4904179;29;20536;-84
2021/11/27 12:09:16;;;;;;;11.57;5.20;;;8.00;47.60;;;;;;4914914;29;20464;-84
2021/11/27 12:12:18;;;;;;;9.43;3.80;;;7.80;48.70;;;;;;4921193;29;20464;-84
2021/11/27 12:15:06;;;;;;;17.20;5.50;;;7.40;50.30;;;;;;4923076;29;20457;-84
2021/11/27 12:17:35;;;;;;;18.83;4.73;;;7.40;51.90;;;;;;4922240;29;20488;-83
2021/11/27 12:20:04;;;;;;;7.63;3.70;;;7.20;51.10;;;;;;4924579;29;20517;-85
2021/11/27 12:22:42;;;;;;;13.63;5.10;;;7.20;51.10;;;;;;4925751;29;20453;-85
2021/11/27 12:25:16;;;;;;;9.67;4.73;;;7.50;53.80;;;;;;4925936;29;20529;-86
2021/11/27 12:28:12;;;;;;;12.47;6.37;;;7.60;52.30;;;;;;4923268;29;21104;-84
2021/11/27 12:30:56;;;;;;;15.57;6.17;;;7.80;52.70;;;;;;4925241;29;20517;-84
2021/11/27 12:33:59;;;;;;;13.00;4.67;;;7.90;49.20;;;;;;4926197;29;20540;-85
2021/11/27 12:36:47;;;;;;;13.10;3.40;;;8.00;47.90;;;;;;4886030;29;20459;-84
2021/11/27 12:39:33;;;;;;;11.67;3.83;;;7.70;47.30;;;;;;4885744;29;20490;-84
2021/11/27 12:42:23;;;;;;;19.77;5.03;;;7.90;48.30;;;;;;4903792;29;20876;-85
2021/11/27 12:44:52;;;;;;;10.67;3.70;;;8.30;48.00;;;;;;4904121;29;20474;-86
2021/11/27 12:47:44;;;;;;;18.90;3.70;;;8.30;47.40;;;;;;4904777;29;20550;-85
2021/11/27 12:50:20;;;;;;;11.53;4.60;;;8.00;48.10;;;;;;4904303;29;20475;-85
2021/11/27 12:52:48;;;;;;;10.00;4.30;;;7.80;50.10;;;;;;4904537;29;20967;-85
2021/11/27 12:55:38;;;;;;;10.83;4.10;;;7.80;50.00;;;;;;4904436;29;20458;-85
2021/11/27 12:58:39;;;;;;;11.50;4.07;;;7.70;50.00;;;;;;4906494;29;20494;-85
2021/11/27 13:01:06;;;;;;;11.17;3.97;;;7.50;49.80;;;;;;4907766;29;20450;-85
2021/11/27 13:03:33;;;;;;;19.60;5.17;;;7.30;49.60;;;;;;4906628;29;20466;-85
2021/11/27 13:06:00;;;;;;;12.57;4.50;;;7.50;51.30;;;;;;4903827;29;20491;-86